Time;durP1;ratioP1;P1;durP2;ratioP2;P2;SDS_P1;SDS_P2;PMS_P1;PMS_P2;Temp;Humidity;BMP_temperature;BMP_pressure;BME280_temperature;BME280_humidity;BME280_pressure;Samples;Min_cycle;Max_cycle;Signal;HPM_P1;HPM_P2
2022/01/16 00:00:02;;;;;;;73.57;30.03;;;;;;;;;;5043682;28;20677;-69
2022/01/16 00:05:02;;;;;;;62.03;26.60;;;;;;;;;;5038806;28;20359;-68
2022/01/16 00:07:28;;;;;;;61.10;27.10;;;;;;;;;;5043588;28;20209;-68
2022/01/16 00:09:53;;;;;;;61.10;26.10;;;;;;;;;;5042518;28;20507;-69
2022/01/16 00:12:20;;;;;;;65.77;26.93;;;;;;;;;;5041854;28;20288;-68
2022/01/16 00:14:45;;;;;;;59.63;25.93;;;;;;;;;;5043958;28;20200;-68
2022/01/16 00:17:11;;;;;;;64.33;27.27;;;;;;;;;;5042179;28;20180;-69
2022/01/16 00:19:36;;;;;;;66.27;27.37;;;;;;;;;;5044069;28;20244;-69
2022/01/16 00:22:08;;;;;;;64.00;27.30;;;;;;;;;;5041214;28;20268;-68
2022/01/16 00:24:34;;;;;;;61.87;26.10;;;;;;;;;;5043792;28;20192;-68
2022/01/16 00:26:59;;;;;;;62.83;26.50;;;;;;;;;;5044124;28;20177;-68
2022/01/16 00:29:27;;;;;;;63.33;27.43;;;;;;;;;;5044451;28;20220;-68
2022/01/16 00:31:52;;;;;;;65.30;27.33;;;;;;;;;;5040289;28;20204;-68
2022/01/16 00:34:17;;;;;;;65.30;27.37;;;;;;;;;;5043980;28;20207;-68
2022/01/16 00:36:43;;;;;;;70.67;26.93;;;;;;;;;;5041462;28;20185;-68
2022/01/16 00:39:08;;;;;;;62.57;26.43;;;;;;;;;;5041316;28;20558;-68
2022/01/16 00:41:35;;;;;;;64.07;27.37;;;;;;;;;;5044613;28;20606;-68
2022/01/16 00:44:00;;;;;;;68.97;28.47;;;;;;;;;;5041999;28;20212;-68
2022/01/16 00:46:25;;;;;;;64.50;27.13;;;;;;;;;;5042902;28;20197;-68
2022/01/16 00:48:51;;;;;;;66.23;28.43;;;;;;;;;;5042915;28;20186;-67
2022/01/16 00:51:16;;;;;;;70.07;28.47;;;;;;;;;;5044561;28;20201;-68
2022/01/16 00:53:43;;;;;;;68.37;27.43;;;;;;;;;;5043874;28;20201;-67
2022/01/16 00:56:09;;;;;;;65.50;28.60;;;;;;;;;;5042960;28;20544;-68
2022/01/16 00:58:34;;;;;;;66.33;28.43;;;;;;;;;;5038574;28;20205;-69
2022/01/16 01:00:59;;;;;;;72.10;28.80;;;;;;;;;;5042716;28;20185;-68
2022/01/16 01:03:25;;;;;;;68.67;29.50;;;;;;;;;;5039626;28;20217;-68
2022/01/16 01:05:51;;;;;;;72.70;30.43;;;;;;;;;;5040606;28;20190;-68
2022/01/16 01:08:17;;;;;;;74.67;31.17;;;;;;;;;;5040551;28;20217;-68
2022/01/16 01:10:47;;;;;;;72.20;29.97;;;;;;;;;;5043681;28;20190;-68
2022/01/16 01:13:23;;;;;;;76.10;30.73;;;;;;;;;;5044958;28;20181;-68
2022/01/16 01:15:58;;;;;;;74.13;29.87;;;;;;;;;;5044045;28;20276;-68
2022/01/16 01:18:23;;;;;;;78.23;30.73;;;;;;;;;;5046960;28;20242;-68
2022/01/16 01:20:51;;;;;;;86.30;31.77;;;;;;;;;;5044966;28;20178;-68
2022/01/16 01:23:16;;;;;;;89.00;32.87;;;;;;;;;;5047705;28;20189;-68
2022/01/16 01:25:42;;;;;;;88.37;32.87;;;;;;;;;;5040952;28;20665;-68
2022/01/16 01:28:09;;;;;;;88.57;33.03;;;;;;;;;;5047586;28;20182;-68
2022/01/16 01:30:34;;;;;;;83.07;33.03;;;;;;;;;;5045711;28;20202;-68
2022/01/16 01:33:00;;;;;;;84.17;32.57;;;;;;;;;;5048034;28;20547;-68
2022/01/16 01:35:28;;;;;;;89.43;33.20;;;;;;;;;;5045761;28;20504;-68
2022/01/16 01:37:53;;;;;;;82.47;30.10;;;;;;;;;;5041265;28;20183;-68
2022/01/16 01:40:25;;;;;;;88.40;33.27;;;;;;;;;;5042637;28;20205;-68
2022/01/16 01:51:15;;;;;;;95.40;33.87;;;;;;;;;;5046610;28;20196;-67
2022/01/16 01:53:42;;;;;;;89.70;34.00;;;;;;;;;;5046412;28;20264;-68
2022/01/16 01:56:10;;;;;;;93.07;34.13;;;;;;;;;;5047714;28;20189;-68
2022/01/16 01:58:36;;;;;;;95.77;34.17;;;;;;;;;;5041297;28;20664;-68
2022/01/16 02:01:03;;;;;;;93.83;35.40;;;;;;;;;;5041810;28;20177;-68
2022/01/16 02:03:42;;;;;;;85.83;33.03;;;;;;;;;;5036790;28;20204;-68
2022/01/16 02:06:14;;;;;;;94.73;32.50;;;;;;;;;;5045072;28;20193;-68
2022/01/16 02:08:50;;;;;;;97.30;34.90;;;;;;;;;;5045076;28;20193;-68
2022/01/16 02:11:16;;;;;;;91.50;33.53;;;;;;;;;;5044193;28;20207;-68
2022/01/16 02:13:56;;;;;;;94.57;34.27;;;;;;;;;;5047246;28;20479;-67
2022/01/16 02:28:24;;;;;;;95.73;33.40;;;;;;;;;;5042710;28;20223;-68
2022/01/16 02:31:16;;;;;;;87.17;33.10;;;;;;;;;;5043730;28;20205;-68
2022/01/16 02:36:34;;;;;;;95.47;34.03;;;;;;;;;;5042313;28;20503;-68
2022/01/16 02:39:08;;;;;;;95.83;33.97;;;;;;;;;;5037779;28;20212;-68
2022/01/16 02:41:33;;;;;;;98.20;33.93;;;;;;;;;;5043922;28;20181;-68
2022/01/16 02:43:59;;;;;;;91.73;34.23;;;;;;;;;;5046826;28;20667;-68
2022/01/16 02:48:50;;;;;;;94.40;33.43;;;;;;;;;;5048749;28;20311;-68
2022/01/16 02:51:18;;;;;;;86.77;31.93;;;;;;;;;;5039891;28;20185;-68
2022/01/16 02:53:44;;;;;;;92.00;33.27;;;;;;;;;;5048245;28;20189;-67
2022/01/16 02:56:11;;;;;;;86.77;32.93;;;;;;;;;;5043259;28;20260;-67
2022/01/16 02:58:36;;;;;;;95.63;33.50;;;;;;;;;;5048351;28;20275;-68
2022/01/16 03:01:02;;;;;;;90.87;32.37;;;;;;;;;;5041785;28;22086;-68
2022/01/16 03:03:27;;;;;;;91.47;32.93;;;;;;;;;;5039700;28;20591;-68
2022/01/16 03:05:53;;;;;;;89.77;33.07;;;;;;;;;;5042136;28;20192;-69
2022/01/16 03:08:18;;;;;;;90.37;32.30;;;;;;;;;;5043969;28;20189;-68
2022/01/16 03:11:02;;;;;;;86.03;33.33;;;;;;;;;;5045196;28;20247;-68
2022/01/16 03:13:31;;;;;;;94.07;32.70;;;;;;;;;;5048355;28;20270;-68
2022/01/16 03:15:58;;;;;;;92.87;33.10;;;;;;;;;;5041687;28;20258;-68
2022/01/16 03:23:33;;;;;;;86.60;31.50;;;;;;;;;;5036492;28;20243;-68
2022/01/16 03:25:59;;;;;;;94.30;33.13;;;;;;;;;;5044071;28;20589;-68
2022/01/16 03:28:25;;;;;;;91.07;33.27;;;;;;;;;;5047086;28;20189;-68
2022/01/16 03:30:51;;;;;;;95.13;35.10;;;;;;;;;;5041690;28;20201;-68
2022/01/16 03:33:17;;;;;;;93.00;33.10;;;;;;;;;;5043450;28;20197;-68
2022/01/16 03:35:43;;;;;;;104.00;35.37;;;;;;;;;;5043770;28;20189;-68
2022/01/16 03:38:08;;;;;;;103.57;34.27;;;;;;;;;;5043158;28;20480;-68
2022/01/16 03:40:35;;;;;;;98.43;34.23;;;;;;;;;;5046694;28;20208;-68
2022/01/16 03:43:11;;;;;;;92.17;34.53;;;;;;;;;;5045736;28;20193;-68
2022/01/16 03:45:37;;;;;;;102.77;34.63;;;;;;;;;;5043762;28;20720;-68
2022/01/16 03:48:02;;;;;;;93.70;34.40;;;;;;;;;;5043883;28;20264;-68
2022/01/16 03:50:28;;;;;;;95.40;33.27;;;;;;;;;;5044311;28;20581;-69
2022/01/16 03:52:53;;;;;;;89.73;33.43;;;;;;;;;;5036594;28;20189;-68
2022/01/16 03:55:19;;;;;;;93.10;33.40;;;;;;;;;;5043973;28;20223;-68
2022/01/16 03:57:44;;;;;;;94.93;34.20;;;;;;;;;;5043257;28;20209;-68
2022/01/16 04:00:10;;;;;;;108.63;34.80;;;;;;;;;;5042980;28;20735;-68
2022/01/16 04:02:36;;;;;;;99.50;33.37;;;;;;;;;;5039875;28;20669;-68
2022/01/16 04:05:01;;;;;;;97.00;33.50;;;;;;;;;;5041725;28;20613;-68
2022/01/16 04:07:32;;;;;;;95.03;32.40;;;;;;;;;;5042536;28;20216;-68
2022/01/16 04:09:58;;;;;;;93.87;34.27;;;;;;;;;;5043467;28;20232;-68
2022/01/16 04:12:24;;;;;;;103.37;34.37;;;;;;;;;;5044176;28;20181;-68
2022/01/16 04:17:18;;;;;;;102.80;34.87;;;;;;;;;;5039233;28;20249;-68
2022/01/16 04:19:44;;;;;;;98.03;34.77;;;;;;;;;;5045955;28;20231;-68
2022/01/16 04:22:10;;;;;;;111.47;35.43;;;;;;;;;;5042221;28;20720;-68
2022/01/16 04:24:36;;;;;;;95.27;33.07;;;;;;;;;;5043042;28;20335;-68
2022/01/16 04:27:03;;;;;;;102.30;35.73;;;;;;;;;;5036673;28;20302;-68
2022/01/16 04:29:28;;;;;;;98.50;35.13;;;;;;;;;;5043669;28;20181;-68
2022/01/16 04:31:54;;;;;;;102.40;35.77;;;;;;;;;;5038438;28;20212;-68
2022/01/16 04:34:19;;;;;;;105.00;35.40;;;;;;;;;;5042010;28;20529;-68
2022/01/16 04:36:44;;;;;;;106.50;35.53;;;;;;;;;;5035184;28;20190;-68
2022/01/16 04:39:15;;;;;;;102.57;35.20;;;;;;;;;;5042208;28;20568;-68
2022/01/16 04:44:26;;;;;;;100.20;32.93;;;;;;;;;;5041159;28;20596;-68
2022/01/16 04:46:52;;;;;;;95.73;34.53;;;;;;;;;;5045034;28;20551;-68
2022/01/16 04:49:17;;;;;;;95.30;34.77;;;;;;;;;;5042560;28;20190;-69
2022/01/16 04:51:42;;;;;;;96.13;33.73;;;;;;;;;;5041942;28;20186;-68
2022/01/16 04:54:08;;;;;;;94.73;35.33;;;;;;;;;;5040488;28;20261;-68
2022/01/16 04:56:34;;;;;;;94.93;32.70;;;;;;;;;;5046219;28;20268;-68
2022/01/16 04:59:00;;;;;;;88.20;32.20;;;;;;;;;;5045063;28;20197;-68
2022/01/16 05:01:25;;;;;;;106.23;35.07;;;;;;;;;;5048073;28;20573;-68
2022/01/16 05:03:50;;;;;;;101.70;34.53;;;;;;;;;;5046050;28;20225;-68
2022/01/16 05:06:16;;;;;;;90.07;32.80;;;;;;;;;;5046466;28;20216;-68
2022/01/16 05:08:41;;;;;;;97.87;33.77;;;;;;;;;;5046160;28;20180;-68
2022/01/16 05:11:08;;;;;;;100.17;33.33;;;;;;;;;;5040458;28;20201;-69
2022/01/16 05:18:48;;;;;;;102.63;35.43;;;;;;;;;;5047182;28;20271;-68
2022/01/16 05:21:14;;;;;;;105.87;33.80;;;;;;;;;;5040384;28;20189;-68
2022/01/16 05:23:41;;;;;;;92.90;33.63;;;;;;;;;;5042810;28;20200;-68
2022/01/16 05:26:07;;;;;;;105.10;35.23;;;;;;;;;;5040474;28;20301;-68
2022/01/16 05:28:32;;;;;;;103.20;34.17;;;;;;;;;;5042221;28;20193;-68
2022/01/16 05:30:58;;;;;;;99.27;32.53;;;;;;;;;;5045506;28;20274;-68
2022/01/16 05:33:23;;;;;;;96.03;33.00;;;;;;;;;;5047967;28;20185;-69
2022/01/16 05:35:49;;;;;;;97.40;33.67;;;;;;;;;;5044757;28;20190;-69
2022/01/16 05:38:14;;;;;;;101.40;33.70;;;;;;;;;;5046752;28;20186;-69
2022/01/16 05:40:40;;;;;;;93.00;33.30;;;;;;;;;;5044421;28;20224;-67
2022/01/16 05:43:06;;;;;;;84.63;32.77;;;;;;;;;;5047859;28;20193;-68
2022/01/16 05:45:32;;;;;;;95.33;33.57;;;;;;;;;;5042894;28;20209;-68
2022/01/16 05:47:57;;;;;;;102.33;33.17;;;;;;;;;;5041953;28;20230;-68
2022/01/16 05:50:24;;;;;;;94.40;32.50;;;;;;;;;;5044349;28;20251;-68
2022/01/16 05:52:50;;;;;;;81.80;31.63;;;;;;;;;;5048433;28;20212;-68
2022/01/16 05:55:16;;;;;;;91.27;32.00;;;;;;;;;;5044067;28;20193;-68
2022/01/16 05:57:43;;;;;;;103.00;34.03;;;;;;;;;;5046359;28;20247;-68
2022/01/16 06:00:10;;;;;;;104.13;33.03;;;;;;;;;;5037391;28;20343;-68
2022/01/16 06:02:35;;;;;;;93.17;31.30;;;;;;;;;;5042821;28;20316;-68
2022/01/16 06:05:01;;;;;;;85.63;32.77;;;;;;;;;;5036732;28;20356;-68
2022/01/16 06:07:28;;;;;;;88.17;32.37;;;;;;;;;;5046652;28;20651;-69
2022/01/16 06:09:54;;;;;;;88.20;32.70;;;;;;;;;;5040763;28;20193;-69
2022/01/16 06:12:20;;;;;;;94.43;34.40;;;;;;;;;;5040126;28;20233;-69
2022/01/16 06:14:45;;;;;;;102.27;34.17;;;;;;;;;;5040347;28;20679;-69
2022/01/16 06:17:11;;;;;;;88.50;32.53;;;;;;;;;;5045166;28;20189;-67
2022/01/16 06:19:36;;;;;;;89.93;33.03;;;;;;;;;;5042162;28;20669;-67
2022/01/16 06:22:02;;;;;;;92.10;32.43;;;;;;;;;;5044208;28;20189;-67
2022/01/16 06:24:27;;;;;;;93.63;33.03;;;;;;;;;;5044769;28;20185;-67
2022/01/16 06:26:53;;;;;;;95.47;32.80;;;;;;;;;;5041475;28;20181;-68
2022/01/16 06:29:19;;;;;;;98.33;34.17;;;;;;;;;;5045308;28;20178;-69
2022/01/16 06:31:45;;;;;;;86.67;33.20;;;;;;;;;;5044292;28;20265;-68
2022/01/16 06:34:10;;;;;;;96.73;33.60;;;;;;;;;;5045255;28;20297;-69
2022/01/16 06:36:37;;;;;;;91.40;32.53;;;;;;;;;;5040021;28;20197;-68
2022/01/16 06:39:07;;;;;;;90.93;32.57;;;;;;;;;;5042240;28;20414;-69
2022/01/16 06:41:34;;;;;;;89.33;32.53;;;;;;;;;;5042046;28;20232;-68
2022/01/16 06:43:59;;;;;;;87.90;34.23;;;;;;;;;;5043695;28;20201;-68
2022/01/16 06:46:25;;;;;;;83.67;31.93;;;;;;;;;;5044220;28;20606;-69
2022/01/16 06:48:51;;;;;;;91.67;32.90;;;;;;;;;;5046706;28;20212;-68
2022/01/16 06:51:20;;;;;;;90.37;33.37;;;;;;;;;;5041386;28;20536;-68
2022/01/16 06:53:50;;;;;;;91.30;33.20;;;;;;;;;;5041774;28;20664;-68
2022/01/16 06:56:17;;;;;;;90.47;34.20;;;;;;;;;;5043637;28;20186;-68
2022/01/16 06:58:43;;;;;;;95.33;35.93;;;;;;;;;;4337119;28;10000817;-68
2022/01/16 07:01:09;;;;;;;94.13;33.67;;;;;;;;;;5040024;28;20559;-69
2022/01/16 07:03:35;;;;;;;88.83;33.53;;;;;;;;;;5039588;28;20181;-69
2022/01/16 07:06:01;;;;;;;98.30;34.60;;;;;;;;;;5041492;28;20216;-69
2022/01/16 07:08:27;;;;;;;91.77;34.30;;;;;;;;;;5038754;28;20189;-69
2022/01/16 07:10:54;;;;;;;91.13;35.17;;;;;;;;;;5043556;28;20597;-71
2022/01/16 07:13:21;;;;;;;89.97;34.13;;;;;;;;;;5043022;28;20646;-68
2022/01/16 07:15:47;;;;;;;93.23;36.40;;;;;;;;;;5041705;28;20196;-69
2022/01/16 07:18:13;;;;;;;89.53;36.07;;;;;;;;;;5046884;28;20866;-68
2022/01/16 07:20:38;;;;;;;95.10;35.87;;;;;;;;;;5045564;28;20296;-68
2022/01/16 07:23:04;;;;;;;96.80;34.83;;;;;;;;;;5043878;28;20203;-69
2022/01/16 07:25:29;;;;;;;99.03;35.87;;;;;;;;;;5045026;28;20676;-68
2022/01/16 07:27:55;;;;;;;106.63;37.43;;;;;;;;;;5045590;28;20601;-68
2022/01/16 07:30:20;;;;;;;102.18;37.38;;;;;;;;;;4691718;28;10001370;-69
2022/01/16 07:32:46;;;;;;;97.97;36.53;;;;;;;;;;5038365;28;20310;-69
2022/01/16 07:35:11;;;;;;;98.10;36.23;;;;;;;;;;5038579;28;20288;-69
2022/01/16 07:37:36;;;;;;;93.60;35.60;;;;;;;;;;5046473;28;20189;-68
2022/01/16 07:40:02;;;;;;;97.37;36.97;;;;;;;;;;5039982;28;20244;-69
2022/01/16 07:42:27;;;;;;;106.40;38.60;;;;;;;;;;5042919;28;20201;-68
2022/01/16 07:44:53;;;;;;;98.00;36.93;;;;;;;;;;5039429;28;20679;-68
2022/01/16 07:47:18;;;;;;;94.73;37.40;;;;;;;;;;5039570;28;20235;-68
2022/01/16 07:49:44;;;;;;;98.23;36.67;;;;;;;;;;5041553;28;20682;-67
2022/01/16 07:52:09;;;;;;;92.30;37.30;;;;;;;;;;5038006;28;20189;-67
2022/01/16 07:54:34;;;;;;;100.13;36.87;;;;;;;;;;5041436;28;20185;-68
2022/01/16 07:57:00;;;;;;;103.77;37.77;;;;;;;;;;5039311;28;20197;-68
2022/01/16 07:59:25;;;;;;;89.97;36.80;;;;;;;;;;5042289;28;20205;-68
2022/01/16 08:01:50;;;;;;;91.67;37.53;;;;;;;;;;5038029;28;20192;-69
2022/01/16 08:04:16;;;;;;;102.27;40.70;;;;;;;;;;5041137;28;20332;-67
2022/01/16 08:06:41;;;;;;;92.43;37.77;;;;;;;;;;5039135;28;20220;-67
2022/01/16 08:09:06;;;;;;;104.23;39.87;;;;;;;;;;5042186;28;20649;-68
2022/01/16 08:11:32;;;;;;;105.20;38.70;;;;;;;;;;5039783;28;20181;-68
2022/01/16 08:13:57;;;;;;;95.07;36.57;;;;;;;;;;5029844;28;20449;-68
2022/01/16 08:16:22;;;;;;;92.97;37.87;;;;;;;;;;5035917;28;20596;-68
2022/01/16 08:18:48;;;;;;;97.73;38.87;;;;;;;;;;5040737;28;20201;-68
2022/01/16 08:21:13;;;;;;;93.93;36.63;;;;;;;;;;5037990;28;20187;-68
2022/01/16 08:23:38;;;;;;;97.73;39.30;;;;;;;;;;5038959;28;20192;-68
2022/01/16 08:26:04;;;;;;;108.53;40.27;;;;;;;;;;5037802;28;20205;-67
2022/01/16 08:28:30;;;;;;;98.90;40.60;;;;;;;;;;5039412;28;20213;-68
2022/01/16 08:30:56;;;;;;;105.37;40.03;;;;;;;;;;5039215;28;20204;-68
2022/01/16 08:33:21;;;;;;;113.20;41.17;;;;;;;;;;5037679;28;20182;-68
2022/01/16 08:35:46;;;;;;;99.07;39.40;;;;;;;;;;5039680;28;20224;-68
2022/01/16 08:38:12;;;;;;;92.47;39.83;;;;;;;;;;5036390;28;20665;-68
2022/01/16 08:40:37;;;;;;;105.03;40.80;;;;;;;;;;5041345;28;20570;-69
2022/01/16 08:43:08;;;;;;;101.47;41.23;;;;;;;;;;5036310;28;20235;-68
2022/01/16 08:45:36;;;;;;;100.27;39.83;;;;;;;;;;5041809;28;20688;-68
2022/01/16 08:48:02;;;;;;;98.57;38.27;;;;;;;;;;5038835;28;20189;-68
2022/01/16 08:50:27;;;;;;;103.63;39.60;;;;;;;;;;5041836;28;20192;-68
2022/01/16 08:52:53;;;;;;;100.27;40.50;;;;;;;;;;5039811;28;20181;-68
2022/01/16 08:55:18;;;;;;;95.77;39.60;;;;;;;;;;5042322;28;20280;-69
2022/01/16 08:57:44;;;;;;;107.13;42.10;;;;;;;;;;5037154;28;20181;-68
2022/01/16 09:00:10;;;;;;;100.60;40.20;;;;;;;;;;5043388;28;20209;-68
2022/01/16 09:02:35;;;;;;;102.13;40.40;;;;;;;;;;5036345;28;20613;-67
2022/01/16 09:05:01;;;;;;;91.70;38.30;;;;;;;;;;5038463;28;20232;-68
2022/01/16 09:07:26;;;;;;;98.63;40.50;;;;;;;;;;5037664;28;20886;-68
2022/01/16 09:09:52;;;;;;;87.77;38.53;;;;;;;;;;5039650;28;20182;-68
2022/01/16 09:12:17;;;;;;;93.00;39.37;;;;;;;;;;5036497;28;20192;-68
2022/01/16 09:14:42;;;;;;;100.63;41.07;;;;;;;;;;5038882;28;20185;-68
2022/01/16 09:17:08;;;;;;;92.57;39.47;;;;;;;;;;5036318;28;20667;-68
2022/01/16 09:19:33;;;;;;;97.63;41.20;;;;;;;;;;5032732;28;20303;-68
2022/01/16 09:21:59;;;;;;;91.30;39.50;;;;;;;;;;5035901;28;20186;-68
2022/01/16 09:24:24;;;;;;;87.90;39.43;;;;;;;;;;5037872;28;20187;-67
2022/01/16 09:26:50;;;;;;;97.43;39.73;;;;;;;;;;5036916;28;20178;-68
2022/01/16 09:29:15;;;;;;;96.47;41.83;;;;;;;;;;5037925;28;20177;-68
2022/01/16 09:31:41;;;;;;;90.37;38.03;;;;;;;;;;5038260;28;20217;-67
2022/01/16 09:34:06;;;;;;;87.73;38.33;;;;;;;;;;5037228;28;20281;-67
2022/01/16 09:36:31;;;;;;;87.00;38.90;;;;;;;;;;5043478;28;20701;-67
2022/01/16 09:38:57;;;;;;;85.83;37.63;;;;;;;;;;5045990;28;20197;-67
2022/01/16 09:41:22;;;;;;;83.33;37.93;;;;;;;;;;5045046;28;20667;-68
2022/01/16 09:43:48;;;;;;;83.37;36.77;;;;;;;;;;5045643;28;20228;-68
2022/01/16 09:46:13;;;;;;;79.17;35.53;;;;;;;;;;5040919;28;20271;-67
2022/01/16 09:48:39;;;;;;;74.40;33.47;;;;;;;;;;5042488;28;20185;-67
2022/01/16 09:51:06;;;;;;;74.50;35.73;;;;;;;;;;5048665;28;20586;-69
2022/01/16 09:53:31;;;;;;;74.47;34.37;;;;;;;;;;5041851;28;20197;-69
2022/01/16 09:55:57;;;;;;;68.50;33.57;;;;;;;;;;5048344;28;20205;-69
2022/01/16 09:58:22;;;;;;;67.30;32.77;;;;;;;;;;5040734;28;20204;-68
2022/01/16 10:00:49;;;;;;;63.90;32.37;;;;;;;;;;5042011;28;20206;-67
2022/01/16 10:03:35;;;;;;;65.33;32.97;;;;;;;;;;5041261;28;20198;-67
2022/01/16 10:06:10;;;;;;;62.87;31.47;;;;;;;;;;5045808;28;20285;-68
2022/01/16 10:08:37;;;;;;;67.03;32.57;;;;;;;;;;5042412;28;20280;-68
2022/01/16 10:11:37;;;;;;;66.13;32.00;;;;;;;;;;5042380;28;20189;-69
2022/01/16 10:14:13;;;;;;;63.27;31.27;;;;;;;;;;5039743;28;20181;-69
2022/01/16 10:16:40;;;;;;;58.83;30.23;;;;;;;;;;5041432;28;20186;-67
2022/01/16 10:19:20;;;;;;;57.23;30.23;;;;;;;;;;5042425;28;20206;-68
2022/01/16 10:21:47;;;;;;;57.90;29.53;;;;;;;;;;5043788;28;20268;-69
2022/01/16 10:24:28;;;;;;;56.70;26.57;;;;;;;;;;5042889;28;20247;-69
2022/01/16 10:27:08;;;;;;;60.17;28.73;;;;;;;;;;5043535;28;20207;-68
2022/01/16 10:29:37;;;;;;;52.93;26.53;;;;;;;;;;5045052;28;21543;-68
2022/01/16 10:32:10;;;;;;;48.03;24.83;;;;;;;;;;5043950;28;20306;-68
2022/01/16 10:34:35;;;;;;;49.47;26.43;;;;;;;;;;5044014;28;20193;-68
2022/01/16 10:37:17;;;;;;;50.10;26.20;;;;;;;;;;5041795;28;20679;-68
2022/01/16 10:40:00;;;;;;;46.37;25.00;;;;;;;;;;5042729;28;20198;-68
2022/01/16 10:42:28;;;;;;;45.33;22.83;;;;;;;;;;5041612;28;20282;-67
2022/01/16 10:45:03;;;;;;;45.23;24.23;;;;;;;;;;5042658;28;20738;-68
2022/01/16 10:47:35;;;;;;;39.87;22.10;;;;;;;;;;5043861;28;20177;-68
2022/01/16 10:50:32;;;;;;;43.30;23.17;;;;;;;;;;5038089;28;20177;-68
2022/01/16 10:53:09;;;;;;;37.53;21.50;;;;;;;;;;5034758;28;20210;-68
2022/01/16 10:55:40;;;;;;;42.33;22.87;;;;;;;;;;5041348;28;20184;-68
2022/01/16 10:58:37;;;;;;;42.40;23.43;;;;;;;;;;5041294;28;20268;-68
2022/01/16 11:01:08;;;;;;;41.60;22.30;;;;;;;;;;5038412;28;20280;-68
2022/01/16 11:03:47;;;;;;;36.23;21.30;;;;;;;;;;5046272;28;20265;-68
2022/01/16 11:06:18;;;;;;;37.00;20.00;;;;;;;;;;5041808;28;20197;-68
2022/01/16 11:08:52;;;;;;;41.23;21.67;;;;;;;;;;5042262;28;20613;-67
2022/01/16 11:11:19;;;;;;;37.43;20.67;;;;;;;;;;5044814;28;20189;-69
2022/01/16 11:13:45;;;;;;;34.37;20.07;;;;;;;;;;5043166;28;20246;-68
2022/01/16 11:16:11;;;;;;;38.00;19.90;;;;;;;;;;5044780;28;20291;-68
2022/01/16 11:18:40;;;;;;;34.00;20.07;;;;;;;;;;5042633;28;20731;-69
2022/01/16 11:26:09;;;;;;;35.47;19.23;;;;;;;;;;5039785;28;20201;-68
2022/01/16 11:28:34;;;;;;;34.90;19.33;;;;;;;;;;5044021;28;20186;-68
2022/01/16 11:31:02;;;;;;;32.00;18.07;;;;;;;;;;5034265;28;20583;-68
2022/01/16 11:33:30;;;;;;;35.50;18.57;;;;;;;;;;5036374;28;20625;-68
2022/01/16 11:36:00;;;;;;;32.87;18.00;;;;;;;;;;5034472;28;20189;-68
2022/01/16 11:38:31;;;;;;;30.77;17.47;;;;;;;;;;5050181;28;20231;-68
2022/01/16 11:41:03;;;;;;;32.43;18.53;;;;;;;;;;5038645;28;20267;-69
2022/01/16 11:43:35;;;;;;;30.70;18.23;;;;;;;;;;5036641;28;20178;-68
2022/01/16 11:46:05;;;;;;;32.37;17.33;;;;;;;;;;5036066;28;20320;-68
2022/01/16 11:48:55;;;;;;;30.47;17.23;;;;;;;;;;5038023;28;20541;-68
2022/01/16 11:51:32;;;;;;;34.27;17.17;;;;;;;;;;5043025;28;20342;-69
2022/01/16 11:54:09;;;;;;;33.37;17.83;;;;;;;;;;5037170;28;20207;-67
2022/01/16 11:56:37;;;;;;;34.00;17.67;;;;;;;;;;5038436;28;20193;-68
2022/01/16 11:59:12;;;;;;;31.77;17.50;;;;;;;;;;5039194;28;20214;-68
2022/01/16 12:02:00;;;;;;;31.47;17.70;;;;;;;;;;5041274;28;20207;-68
2022/01/16 12:04:28;;;;;;;29.47;16.80;;;;;;;;;;5043201;28;20221;-68
2022/01/16 12:07:05;;;;;;;29.37;16.87;;;;;;;;;;5041352;28;20203;-68
2022/01/16 12:09:37;;;;;;;33.17;16.67;;;;;;;;;;5041013;28;20188;-68
2022/01/16 12:12:23;;;;;;;30.00;17.40;;;;;;;;;;5037677;28;20177;-68
2022/01/16 12:15:02;;;;;;;32.33;17.60;;;;;;;;;;5036725;28;20196;-67
2022/01/16 12:17:38;;;;;;;34.90;18.37;;;;;;;;;;5040123;28;20539;-67
2022/01/16 12:20:17;;;;;;;34.67;18.27;;;;;;;;;;5037223;28;20200;-68
2022/01/16 12:22:43;;;;;;;32.17;17.77;;;;;;;;;;5038603;28;20189;-67
2022/01/16 12:25:24;;;;;;;36.00;18.27;;;;;;;;;;5044950;28;20191;-68
2022/01/16 12:28:09;;;;;;;33.37;18.20;;;;;;;;;;5040066;28;20232;-68
2022/01/16 12:30:49;;;;;;;35.07;18.83;;;;;;;;;;5042031;28;20216;-68
2022/01/16 12:33:14;;;;;;;38.47;19.53;;;;;;;;;;5036863;28;20196;-68
2022/01/16 12:35:48;;;;;;;36.57;19.10;;;;;;;;;;5041767;28;20201;-68
2022/01/16 12:38:20;;;;;;;39.70;19.73;;;;;;;;;;5036187;28;21649;-68
2022/01/16 12:41:04;;;;;;;45.23;21.07;;;;;;;;;;5036564;28;20304;-68
2022/01/16 12:43:32;;;;;;;44.83;20.77;;;;;;;;;;5035772;28;20556;-67
2022/01/16 12:46:02;;;;;;;44.03;22.23;;;;;;;;;;5039629;28;20263;-68
2022/01/16 12:48:27;;;;;;;40.90;20.33;;;;;;;;;;5041545;28;20549;-67
2022/01/16 12:51:04;;;;;;;43.33;21.63;;;;;;;;;;5039526;28;20185;-68
2022/01/16 12:53:54;;;;;;;40.23;22.20;;;;;;;;;;5040897;28;20478;-68
2022/01/16 12:56:46;;;;;;;41.27;22.67;;;;;;;;;;5035611;28;20198;-68
2022/01/16 12:59:14;;;;;;;45.63;23.73;;;;;;;;;;5037733;28;20213;-68
2022/01/16 13:01:54;;;;;;;45.50;23.50;;;;;;;;;;5041249;28;20181;-68
2022/01/16 13:04:30;;;;;;;53.53;23.37;;;;;;;;;;5036422;28;20264;-67
2022/01/16 13:06:57;;;;;;;51.87;24.43;;;;;;;;;;5039017;28;20190;-68
2022/01/16 13:09:23;;;;;;;49.10;24.50;;;;;;;;;;5037825;28;20630;-68
2022/01/16 13:11:55;;;;;;;50.37;25.50;;;;;;;;;;5042455;28;20197;-68
2022/01/16 13:14:25;;;;;;;51.03;24.03;;;;;;;;;;5033538;28;20190;-69
2022/01/16 13:16:53;;;;;;;50.67;24.43;;;;;;;;;;5043693;28;20190;-67
2022/01/16 13:19:21;;;;;;;50.07;24.83;;;;;;;;;;5039876;28;20213;-68
2022/01/16 13:22:04;;;;;;;54.17;24.87;;;;;;;;;;5045759;28;20189;-68
2022/01/16 13:24:34;;;;;;;51.50;24.53;;;;;;;;;;5045807;28;20170;-67
2022/01/16 13:27:03;;;;;;;53.93;26.00;;;;;;;;;;5040820;28;20301;-69
2022/01/16 13:29:29;;;;;;;57.77;25.53;;;;;;;;;;5041818;28;20576;-69
2022/01/16 13:31:54;;;;;;;54.43;25.10;;;;;;;;;;5043432;28;20258;-68
2022/01/16 13:34:32;;;;;;;49.33;24.83;;;;;;;;;;5047058;28;20189;-68
2022/01/16 13:36:57;;;;;;;51.87;24.97;;;;;;;;;;5045740;28;20190;-68
2022/01/16 13:39:46;;;;;;;54.80;26.50;;;;;;;;;;5043482;28;20281;-71
2022/01/16 13:42:24;;;;;;;54.80;25.73;;;;;;;;;;5043626;28;20186;-68
2022/01/16 13:44:49;;;;;;;59.30;25.77;;;;;;;;;;5043003;28;20276;-68
2022/01/16 13:47:17;;;;;;;58.70;26.30;;;;;;;;;;5046105;28;20597;-69
2022/01/16 13:49:52;;;;;;;59.47;27.00;;;;;;;;;;5047351;28;21594;-68
2022/01/16 13:52:26;;;;;;;56.83;25.90;;;;;;;;;;5041948;28;20216;-68
2022/01/16 13:55:09;;;;;;;59.33;26.30;;;;;;;;;;5043696;28;20297;-69
2022/01/16 13:57:36;;;;;;;60.57;26.77;;;;;;;;;;5038211;28;20185;-67
2022/01/16 14:00:07;;;;;;;59.63;26.00;;;;;;;;;;5039966;28;20258;-68
2022/01/16 14:02:34;;;;;;;55.50;26.27;;;;;;;;;;5043290;28;20212;-69
2022/01/16 14:05:00;;;;;;;59.37;26.57;;;;;;;;;;5039875;28;20236;-68
2022/01/16 14:07:25;;;;;;;60.27;26.80;;;;;;;;;;5043659;28;20196;-68
2022/01/16 14:09:52;;;;;;;60.93;27.17;;;;;;;;;;5038971;28;20186;-68
2022/01/16 14:12:19;;;;;;;62.07;26.60;;;;;;;;;;5044842;28;20190;-68
2022/01/16 14:14:45;;;;;;;64.87;26.37;;;;;;;;;;5043484;28;20198;-68
2022/01/16 14:19:42;;;;;;;61.23;25.90;;;;;;;;;;5041909;28;20229;-67
2022/01/16 14:22:16;;;;;;;67.13;26.80;;;;;;;;;;5041927;28;20185;-67
2022/01/16 14:24:48;;;;;;;57.90;25.80;;;;;;;;;;5042802;28;20185;-68
2022/01/16 14:27:29;;;;;;;59.97;27.00;;;;;;;;;;5043942;28;20239;-68
2022/01/16 14:29:58;;;;;;;66.80;27.17;;;;;;;;;;5041021;28;20177;-67
2022/01/16 14:32:24;;;;;;;72.53;27.53;;;;;;;;;;5038495;28;20847;-67
2022/01/16 14:34:52;;;;;;;63.47;27.23;;;;;;;;;;5037924;28;20251;-68
2022/01/16 14:37:18;;;;;;;65.73;27.60;;;;;;;;;;5041399;28;20297;-68
2022/01/16 14:39:45;;;;;;;63.10;27.13;;;;;;;;;;5038379;28;20604;-68
2022/01/16 14:42:13;;;;;;;70.93;29.47;;;;;;;;;;5045701;28;20485;-68
2022/01/16 14:44:39;;;;;;;68.50;28.37;;;;;;;;;;5038868;28;20185;-68
2022/01/16 14:47:06;;;;;;;67.97;29.40;;;;;;;;;;5043636;28;20206;-67
2022/01/16 14:49:32;;;;;;;70.43;29.13;;;;;;;;;;5039987;28;20597;-67
2022/01/16 14:51:58;;;;;;;69.40;29.43;;;;;;;;;;5044309;28;20933;-67
2022/01/16 14:54:24;;;;;;;71.70;29.70;;;;;;;;;;5040575;28;20177;-67
2022/01/16 14:56:49;;;;;;;70.17;29.40;;;;;;;;;;5040016;28;20684;-68
2022/01/16 14:59:15;;;;;;;76.43;29.53;;;;;;;;;;5039757;28;20209;-69
2022/01/16 15:01:42;;;;;;;74.97;30.00;;;;;;;;;;5037725;28;20190;-67
2022/01/16 15:04:08;;;;;;;83.47;31.90;;;;;;;;;;5039604;28;20241;-68
2022/01/16 15:06:34;;;;;;;68.33;29.77;;;;;;;;;;5048992;28;20747;-68
2022/01/16 15:09:00;;;;;;;73.80;30.07;;;;;;;;;;5036578;28;20249;-67
2022/01/16 15:11:27;;;;;;;72.37;28.97;;;;;;;;;;5033765;28;20236;-67
2022/01/16 15:13:55;;;;;;;70.17;29.00;;;;;;;;;;5038051;28;20270;-67